Time;durP1;ratioP1;P1;durP2;ratioP2;P2;SDS_P1;SDS_P2;PMS_P1;PMS_P2;Temp;Humidity;BMP_temperature;BMP_pressure;BME280_temperature;BME280_humidity;BME280_pressure;Samples;Min_cycle;Max_cycle;Signal;HPM_P1;HPM_P2
2023/11/11 00:01:27;;;;;;;;;;;;;;;4.90;55.42;93610.50;4981248;28;19937;-76
2023/11/11 00:03:53;;;;;;;;;;;;;;;3.96;56.25;93613.13;4975611;28;19933;-73
2023/11/11 00:06:18;;;;;;;;;;;;;;;4.09;58.08;93606.38;4969074;28;20024;-74
2023/11/11 00:08:43;;;;;;;;;;;;;;;2.98;60.60;93614.91;4982086;28;19952;-75
2023/11/11 00:11:11;;;;;;;;;;;;;;;3.71;58.17;93615.28;4966539;28;20006;-75
2023/11/11 00:13:37;;;;;;;;;;;;;;;4.41;57.17;93606.88;4976970;28;19926;-74
2023/11/11 00:16:02;;;;;;;;;;;;;;;5.05;54.78;93606.97;4967284;28;19966;-74
2023/11/11 00:18:27;;;;;;;;;;;;;;;5.35;53.74;93609.41;4976112;28;19926;-75
2023/11/11 00:20:53;;;;;;;;;;;;;;;5.24;53.16;93612.59;4981217;28;19972;-74
2023/11/11 00:23:20;;;;;;;;;;;;;;;5.68;52.52;93623.81;4980362;28;19929;-75
2023/11/11 00:25:46;;;;;;;;;;;;;;;5.33;52.82;93624.63;4969774;28;20017;-74
2023/11/11 00:28:12;;;;;;;;;;;;;;;4.75;54.69;93623.78;4956604;28;19929;-75
2023/11/11 00:30:38;;;;;;;;;;;;;;;4.93;54.70;93623.31;4975367;28;20137;-75
2023/11/11 00:33:03;;;;;;;;;;;;;;;5.32;53.47;93623.00;4971532;28;20127;-74
2023/11/11 00:35:28;;;;;;;;;;;;;;;5.25;53.18;93619.50;4976497;28;19929;-74
2023/11/11 00:37:53;;;;;;;;;;;;;;;4.82;53.83;93639.66;4961643;28;19930;-75
2023/11/11 00:40:19;;;;;;;;;;;;;;;3.62;57.12;93623.28;4974913;28;19987;-79
2023/11/11 00:42:44;;;;;;;;;;;;;;;3.55;55.71;93636.34;4974036;28;20060;-77
2023/11/11 00:45:09;;;;;;;;;;;;;;;1.85;61.95;93667.94;4980878;28;19956;-75
2023/11/11 00:47:35;;;;;;;;;;;;;;;0.24;67.17;93679.78;4983260;28;20017;-75
2023/11/11 00:50:01;;;;;;;;;;;;;;;-0.89;71.15;93679.88;4973558;28;20849;-78
2023/11/11 00:52:26;;;;;;;;;;;;;;;-1.48;74.06;93689.09;4977068;28;20589;-77
2023/11/11 00:54:52;;;;;;;;;;;;;;;-1.42;73.45;93695.50;4975262;28;19967;-74
2023/11/11 00:57:18;;;;;;;;;;;;;;;-1.50;74.14;93696.25;4964862;28;19945;-75
2023/11/11 00:59:44;;;;;;;;;;;;;;;-1.76;75.75;93689.16;4972169;28;19979;-76
2023/11/11 01:02:09;;;;;;;;;;;;;;;-1.38;74.13;93682.97;4972340;28;20451;-75
2023/11/11 01:04:34;;;;;;;;;;;;;;;-1.44;74.91;93684.38;4978880;28;20478;-77
2023/11/11 01:06:59;;;;;;;;;;;;;;;-0.95;72.84;93681.31;4968630;28;19965;-75
2023/11/11 01:09:25;;;;;;;;;;;;;;;-1.04;73.12;93670.94;4976334;28;20563;-78
2023/11/11 01:11:50;;;;;;;;;;;;;;;-2.33;78.72;93700.66;4970169;28;20081;-76
2023/11/11 01:14:16;;;;;;;;;;;;;;;-2.32;79.41;93702.28;4971186;28;19959;-80
2023/11/11 01:16:42;;;;;;;;;;;;;;;-2.19;80.71;93694.13;4972154;28;20024;-77
2023/11/11 01:19:07;;;;;;;;;;;;;;;-2.33;79.32;93715.47;4970236;28;20105;-75
2023/11/11 01:21:32;;;;;;;;;;;;;;;-2.42;80.16;93717.16;4978610;28;20409;-80
2023/11/11 01:23:58;;;;;;;;;;;;;;;-2.32;79.60;93725.75;4956406;28;20575;-77
2023/11/11 01:26:26;;;;;;;;;;;;;;;-1.79;80.35;93723.41;4977522;28;20337;-77
2023/11/11 01:28:51;;;;;;;;;;;;;;;-1.80;78.98;93718.31;4975316;28;19962;-79
2023/11/11 01:31:20;;;;;;;;;;;;;;;-1.57;79.41;93723.91;4967105;28;20435;-77
2023/11/11 01:33:46;;;;;;;;;;;;;;;-1.90;78.64;93729.63;4957574;28;19947;-77
2023/11/11 01:36:11;;;;;;;;;;;;;;;-2.07;78.89;93739.06;4969274;28;20513;-79
2023/11/11 01:38:37;;;;;;;;;;;;;;;-2.39;79.46;93746.38;4973067;28;19955;-76
2023/11/11 01:41:05;;;;;;;;;;;;;;;-2.20;79.41;93744.63;4967011;28;19956;-75
2023/11/11 01:43:30;;;;;;;;;;;;;;;-2.15;79.68;93755.44;4958110;28;20601;-79
2023/11/11 01:45:56;;;;;;;;;;;;;;;-2.29;78.98;93754.16;4974793;28;19964;-77
2023/11/11 01:48:22;;;;;;;;;;;;;;;-2.50;79.74;93778.66;4974007;28;19934;-76
2023/11/11 01:50:47;;;;;;;;;;;;;;;-2.46;79.88;93786.16;4979318;28;19974;-76
2023/11/11 01:53:13;;;;;;;;;;;;;;;-2.07;79.26;93775.56;4977351;28;20009;-76
2023/11/11 01:55:38;;;;;;;;;;;;;;;-2.20;79.08;93778.53;4978770;28;20452;-76
2023/11/11 01:58:04;;;;;;;;;;;;;;;-2.17;78.11;93793.06;4972586;28;20160;-75
2023/11/11 02:00:35;;;;;;;;;;;;;;;-2.10;78.62;93796.75;4979103;28;19991;-76
2023/11/11 02:03:01;;;;;;;;;;;;;;;-2.10;79.45;93799.34;4971870;28;19971;-75
2023/11/11 02:05:26;;;;;;;;;;;;;;;-2.12;77.86;93803.88;4979009;28;20023;-76
2023/11/11 02:07:51;;;;;;;;;;;;;;;-1.83;77.08;93797.72;4973885;28;19959;-76
2023/11/11 02:10:17;;;;;;;;;;;;;;;-1.80;77.34;93800.00;4962316;28;19968;-75
2023/11/11 02:12:43;;;;;;;;;;;;;;;-1.59;76.02;93801.56;4970159;28;19950;-76
2023/11/11 02:15:09;;;;;;;;;;;;;;;-1.75;76.67;93796.97;4977644;28;19997;-76
2023/11/11 02:17:34;;;;;;;;;;;;;;;-1.36;75.79;93811.53;4975981;28;19937;-75
2023/11/11 02:20:00;;;;;;;;;;;;;;;-1.73;76.00;93814.13;4971031;28;20008;-77
2023/11/11 02:22:25;;;;;;;;;;;;;;;-1.63;76.40;93821.88;4977282;28;19967;-75
2023/11/11 02:24:51;;;;;;;;;;;;;;;-1.69;75.71;93812.06;4980495;28;19968;-75
2023/11/11 02:27:16;;;;;;;;;;;;;;;-1.80;76.95;93820.09;4971280;28;20424;-75
2023/11/11 02:29:45;;;;;;;;;;;;;;;-1.87;76.67;93828.47;4979403;28;19940;-75
2023/11/11 02:32:10;;;;;;;;;;;;;;;-1.30;75.04;93831.03;4972161;28;20070;-75
2023/11/11 02:34:36;;;;;;;;;;;;;;;-2.04;76.40;93826.66;4971487;28;20716;-76
2023/11/11 02:37:01;;;;;;;;;;;;;;;-1.88;77.29;93820.78;4964758;28;19973;-76
2023/11/11 02:39:26;;;;;;;;;;;;;;;-1.98;76.36;93828.66;4962935;28;20512;-76
2023/11/11 02:41:52;;;;;;;;;;;;;;;-1.82;76.71;93825.44;4955281;28;20496;-76
2023/11/11 02:44:17;;;;;;;;;;;;;;;-1.32;75.24;93830.38;4968604;28;20638;-76
2023/11/11 02:46:43;;;;;;;;;;;;;;;-1.28;74.84;93826.50;4977010;28;19964;-76
2023/11/11 02:49:08;;;;;;;;;;;;;;;-1.48;74.47;93839.66;4960245;28;20076;-76
2023/11/11 02:51:34;;;;;;;;;;;;;;;-1.78;77.04;93836.41;4973209;28;20595;-76
2023/11/11 02:53:59;;;;;;;;;;;;;;;-1.48;75.22;93845.72;4977155;28;19977;-75
2023/11/11 02:56:25;;;;;;;;;;;;;;;-0.89;72.37;93835.84;4951450;28;20402;-75
2023/11/11 02:58:50;;;;;;;;;;;;;;;-0.80;73.18;93837.56;4968409;28;19960;-76
2023/11/11 03:01:15;;;;;;;;;;;;;;;-0.33;71.20;93840.81;4955848;28;20379;-75
2023/11/11 03:03:41;;;;;;;;;;;;;;;-0.57;71.33;93844.91;4973212;28;19957;-75
2023/11/11 03:06:06;;;;;;;;;;;;;;;-0.59;71.86;93849.47;4972773;28;20068;-74
2023/11/11 03:08:36;;;;;;;;;;;;;;;-0.39;70.74;93855.34;4977193;28;19936;-76
2023/11/11 03:11:02;;;;;;;;;;;;;;;-0.60;71.96;93853.06;4973713;28;20564;-74
2023/11/11 03:13:27;;;;;;;;;;;;;;;-0.52;72.14;93862.75;4974547;28;19942;-75
2023/11/11 03:15:52;;;;;;;;;;;;;;;-0.31;70.54;93865.84;4979913;28;19954;-74
2023/11/11 03:18:17;;;;;;;;;;;;;;;-0.16;70.46;93867.91;4971858;28;20737;-75
2023/11/11 03:20:43;;;;;;;;;;;;;;;-0.40;70.51;93889.47;4963118;28;19944;-73
2023/11/11 03:23:08;;;;;;;;;;;;;;;-0.68;72.07;93873.91;4980650;28;19979;-76
2023/11/11 03:25:33;;;;;;;;;;;;;;;-0.30;70.74;93882.38;4977543;28;20465;-75
2023/11/11 03:27:58;;;;;;;;;;;;;;;-0.79;72.34;93875.78;4974670;28;19967;-76
2023/11/11 03:30:24;;;;;;;;;;;;;;;-0.60;72.82;93887.03;4972206;28;20345;-75
2023/11/11 03:32:49;;;;;;;;;;;;;;;-0.69;72.41;93894.00;4953136;28;19941;-73
2023/11/11 03:35:14;;;;;;;;;;;;;;;-0.50;72.45;93900.88;4960604;28;20093;-75
2023/11/11 03:37:39;;;;;;;;;;;;;;;-0.87;74.68;93899.22;4966324;28;19961;-75
2023/11/11 03:40:06;;;;;;;;;;;;;;;-0.88;75.31;93894.97;4974312;28;19963;-73
2023/11/11 03:42:31;;;;;;;;;;;;;;;-0.86;74.73;93925.22;4966937;28;20594;-75
2023/11/11 03:44:57;;;;;;;;;;;;;;;-1.17;76.81;93906.41;4971222;28;20015;-73
2023/11/11 03:47:22;;;;;;;;;;;;;;;-1.03;77.28;93918.13;4971674;28;19917;-74
2023/11/11 03:49:47;;;;;;;;;;;;;;;-1.19;78.35;93924.03;4980880;28;20510;-74
2023/11/11 03:52:12;;;;;;;;;;;;;;;-0.76;76.64;93919.09;4980696;28;19960;-75
2023/11/11 03:54:38;;;;;;;;;;;;;;;-1.46;80.25;93914.25;4972166;28;19952;-75
2023/11/11 03:57:03;;;;;;;;;;;;;;;-1.14;79.28;93922.63;4981456;28;20407;-75
2023/11/11 03:59:31;;;;;;;;;;;;;;;-1.32;80.14;93933.03;4971373;28;19966;-74
2023/11/11 04:01:56;;;;;;;;;;;;;;;-1.06;78.19;93944.56;4974918;28;20033;-75
2023/11/11 04:04:22;;;;;;;;;;;;;;;-1.41;80.24;93928.66;4973269;28;20404;-74
2023/11/11 04:06:47;;;;;;;;;;;;;;;-1.23;80.23;93931.31;4974960;28;19968;-74
2023/11/11 04:09:13;;;;;;;;;;;;;;;-1.29;80.18;93934.53;4992936;28;19934;-75
2023/11/11 04:11:38;;;;;;;;;;;;;;;-0.96;78.97;93934.91;4984379;28;20506;-77
2023/11/11 04:14:03;;;;;;;;;;;;;;;-1.19;80.22;93937.09;4984082;28;19945;-76
2023/11/11 04:16:29;;;;;;;;;;;;;;;-0.91;79.18;93939.69;4989316;28;20378;-77
2023/11/11 04:18:55;;;;;;;;;;;;;;;-0.99;79.39;93946.44;4992412;28;19985;-78
2023/11/11 04:21:20;;;;;;;;;;;;;;;-1.04;79.12;93964.34;4982400;28;20632;-79
2023/11/11 04:23:45;;;;;;;;;;;;;;;-1.19;78.97;93968.44;4974303;28;19960;-76
2023/11/11 04:26:10;;;;;;;;;;;;;;;-1.03;79.64;93955.53;4977167;28;19956;-78
2023/11/11 04:28:37;;;;;;;;;;;;;;;-0.98;78.70;93965.56;4982588;28;20014;-80
2023/11/11 04:31:02;;;;;;;;;;;;;;;-0.93;78.40;93968.56;4977988;28;19955;-75
2023/11/11 04:33:30;;;;;;;;;;;;;;;-0.60;78.06;93966.28;4972549;28;20053;-76
2023/11/11 04:35:56;;;;;;;;;;;;;;;-0.57;77.18;93981.66;4975649;28;20117;-79
2023/11/11 04:38:22;;;;;;;;;;;;;;;-0.53;76.67;93976.16;4971763;28;20036;-77
2023/11/11 04:40:49;;;;;;;;;;;;;;;-0.70;78.67;93989.06;4982598;28;20056;-76
2023/11/11 04:43:15;;;;;;;;;;;;;;;-0.41;77.01;93989.84;4977515;28;19963;-79
2023/11/11 04:45:40;;;;;;;;;;;;;;;-0.12;75.71;93994.00;4982291;28;19930;-79
2023/11/11 04:48:05;;;;;;;;;;;;;;;-0.06;75.36;94003.84;4969811;28;19969;-78
2023/11/11 04:50:30;;;;;;;;;;;;;;;-1.23;77.92;94007.88;4969789;28;19960;-78
2023/11/11 04:52:56;;;;;;;;;;;;;;;-1.58;79.74;94014.63;4980645;28;19958;-77
2023/11/11 04:55:21;;;;;;;;;;;;;;;-1.06;77.71;94021.13;4977292;28;20548;-76
2023/11/11 04:57:46;;;;;;;;;;;;;;;-0.60;76.13;94023.00;4972216;28;20086;-76
2023/11/11 05:00:13;;;;;;;;;;;;;;;-0.91;78.47;94042.44;4971659;28;19940;-77
2023/11/11 05:02:43;;;;;;;;;;;;;;;-0.95;78.67;94030.59;4972652;28;19926;-77
2023/11/11 05:05:10;;;;;;;;;;;;;;;-1.24;80.89;94045.44;4967728;28;19958;-79
2023/11/11 05:07:37;;;;;;;;;;;;;;;-1.05;80.36;94035.84;4973309;28;20676;-76
2023/11/11 05:10:04;;;;;;;;;;;;;;;-0.98;80.25;94059.63;4970183;28;19997;-78
2023/11/11 05:12:33;;;;;;;;;;;;;;;-0.41;77.74;94049.97;4971470;28;19954;-79
2023/11/11 05:14:58;;;;;;;;;;;;;;;-0.32;77.40;94052.53;4972029;28;19918;-75
2023/11/11 05:17:25;;;;;;;;;;;;;;;-1.13;78.93;94067.09;4972538;28;19932;-76
2023/11/11 05:19:51;;;;;;;;;;;;;;;-1.55;81.37;94081.38;4970914;28;20013;-79
2023/11/11 05:22:16;;;;;;;;;;;;;;;-1.24;79.26;94086.38;4974638;28;20425;-72
2023/11/11 05:24:42;;;;;;;;;;;;;;;-0.66;78.09;94068.00;4956669;28;20003;-73
2023/11/11 05:27:07;;;;;;;;;;;;;;;-1.28;78.73;94111.97;4977832;28;19988;-75
2023/11/11 05:29:32;;;;;;;;;;;;;;;-0.89;77.64;94076.22;4962215;28;20266;-75
2023/11/11 05:31:57;;;;;;;;;;;;;;;-1.17;79.17;94084.84;4976678;28;19922;-75
2023/11/11 05:34:23;;;;;;;;;;;;;;;-1.43;80.87;94085.47;4977361;28;20016;-74
2023/11/11 05:36:50;;;;;;;;;;;;;;;-1.27;79.78;94103.16;4974790;28;19965;-72
2023/11/11 05:39:16;;;;;;;;;;;;;;;-1.79;81.55;94112.19;4975444;28;19952;-74
2023/11/11 05:41:42;;;;;;;;;;;;;;;-1.51;81.10;94099.22;4975199;28;20045;-73
2023/11/11 05:44:08;;;;;;;;;;;;;;;-1.73;81.61;94111.59;4971876;28;19951;-75
2023/11/11 05:46:33;;;;;;;;;;;;;;;-1.85;81.69;94124.00;4974549;28;19933;-75
2023/11/11 05:48:58;;;;;;;;;;;;;;;-1.60;81.60;94119.16;4976517;28;19922;-74
2023/11/11 05:51:25;;;;;;;;;;;;;;;-2.05;83.46;94123.16;4976624;28;19925;-72
2023/11/11 05:53:50;;;;;;;;;;;;;;;-1.88;82.64;94126.88;4971446;28;20017;-73
2023/11/11 05:56:16;;;;;;;;;;;;;;;-1.39;80.98;94127.78;4976598;28;20027;-72
2023/11/11 05:58:42;;;;;;;;;;;;;;;-1.27;79.47;94137.09;4971328;28;19926;-74
2023/11/11 06:01:07;;;;;;;;;;;;;;;-1.17;79.16;94136.25;4961008;28;20343;-74
2023/11/11 06:03:33;;;;;;;;;;;;;;;-1.49;80.85;94136.44;4971109;28;19952;-73
2023/11/11 06:05:58;;;;;;;;;;;;;;;-1.44;80.49;94141.25;4968870;28;20438;-73
2023/11/11 06:08:23;;;;;;;;;;;;;;;-1.42;80.72;94141.97;4977145;28;19951;-74
2023/11/11 06:10:48;;;;;;;;;;;;;;;-1.37;79.83;94146.75;4971271;28;19952;-74
2023/11/11 06:13:14;;;;;;;;;;;;;;;-1.42;80.54;94156.78;4972634;28;20391;-73
2023/11/11 06:15:39;;;;;;;;;;;;;;;-2.12;82.56;94175.03;4976562;28;19984;-74
2023/11/11 06:18:04;;;;;;;;;;;;;;;-1.96;83.50;94167.63;4970799;28;19936;-73
2023/11/11 06:20:33;;;;;;;;;;;;;;;-1.73;82.36;94166.41;4976505;28;20182;-73
2023/11/11 06:22:58;;;;;;;;;;;;;;;-1.86;83.29;94169.28;4971038;28;19922;-73
2023/11/11 06:25:24;;;;;;;;;;;;;;;-2.22;83.70;94178.56;4977821;28;19964;-72
2023/11/11 06:27:50;;;;;;;;;;;;;;;-2.26;84.52;94189.28;4971249;28;20132;-72
2023/11/11 06:30:16;;;;;;;;;;;;;;;-2.05;83.68;94180.53;4976913;28;20433;-73
2023/11/11 06:32:45;;;;;;;;;;;;;;;-2.01;84.66;94186.28;4964158;28;20030;-74
2023/11/11 06:35:12;;;;;;;;;;;;;;;-1.64;83.05;94197.88;4976573;28;20611;-74
2023/11/11 06:37:37;;;;;;;;;;;;;;;-2.08;83.47;94199.06;4964122;28;19949;-75
2023/11/11 06:40:03;;;;;;;;;;;;;;;-1.92;83.49;94195.94;4971291;28;20333;-75
2023/11/11 06:42:29;;;;;;;;;;;;;;;-2.45;84.79;94197.06;4967242;28;20526;-75
2023/11/11 06:44:56;;;;;;;;;;;;;;;-2.73;84.96;94209.81;4968767;28;20000;-74
2023/11/11 06:47:21;;;;;;;;;;;;;;;-2.17;83.92;94200.69;4976993;28;19929;-75
2023/11/11 06:49:47;;;;;;;;;;;;;;;-2.42;83.95;94209.81;4960553;28;19930;-75
2023/11/11 06:52:12;;;;;;;;;;;;;;;-2.46;84.83;94217.06;4972557;28;19956;-74
2023/11/11 06:54:37;;;;;;;;;;;;;;;-2.58;85.65;94234.56;4968607;28;19976;-75
2023/11/11 06:57:05;;;;;;;;;;;;;;;-2.57;85.94;94223.22;4966409;28;20026;-74
2023/11/11 06:59:30;;;;;;;;;;;;;;;-2.55;85.36;94230.91;4963202;28;19984;-74
2023/11/11 07:01:55;;;;;;;;;;;;;;;-2.42;84.74;94228.06;4970972;28;20869;-74
2023/11/11 07:04:22;;;;;;;;;;;;;;;-2.10;83.68;94221.88;4969645;28;20037;-74
2023/11/11 07:06:47;;;;;;;;;;;;;;;-2.31;83.41;94241.00;4966682;28;20084;-74
2023/11/11 07:09:12;;;;;;;;;;;;;;;-2.38;84.72;94248.53;4976479;28;20406;-74
2023/11/11 07:11:37;;;;;;;;;;;;;;;-2.20;84.10;94237.47;4965959;28;19930;-75
2023/11/11 07:14:03;;;;;;;;;;;;;;;-2.22;84.51;94272.44;4955216;28;19933;-74
2023/11/11 07:16:28;;;;;;;;;;;;;;;-2.32;83.91;94247.16;4970688;28;20062;-74
2023/11/11 07:18:54;;;;;;;;;;;;;;;-2.29;83.17;94240.88;4964842;28;19963;-75
2023/11/11 07:21:21;;;;;;;;;;;;;;;-2.10;83.92;94250.56;4970361;28;19992;-75
2023/11/11 07:23:47;;;;;;;;;;;;;;;-2.19;83.89;94259.16;4981122;28;19997;-74
2023/11/11 07:26:12;;;;;;;;;;;;;;;-2.32;84.54;94259.38;4971483;28;20407;-75
2023/11/11 07:28:38;;;;;;;;;;;;;;;-2.47;85.42;94258.91;4973320;28;19922;-75
2023/11/11 07:31:03;;;;;;;;;;;;;;;-2.10;83.92;94260.97;4974598;28;19993;-74
2023/11/11 07:33:28;;;;;;;;;;;;;;;-2.04;83.36;94264.84;4973676;28;19944;-75
2023/11/11 07:35:53;;;;;;;;;;;;;;;-2.03;82.50;94288.16;4981215;28;19973;-75
2023/11/11 07:38:20;;;;;;;;;;;;;;;-2.09;83.99;94278.28;4970503;28;20452;-75
2023/11/11 07:40:45;;;;;;;;;;;;;;;-1.94;83.09;94283.94;4964830;28;19929;-74
2023/11/11 07:43:10;;;;;;;;;;;;;;;-1.90;83.54;94284.50;4973234;28;19926;-74
2023/11/11 07:45:35;;;;;;;;;;;;;;;-1.88;83.11;94285.19;4976432;28;20443;-75
2023/11/11 07:48:01;;;;;;;;;;;;;;;-1.65;81.99;94279.75;4979272;28;20432;-75
2023/11/11 07:50:26;;;;;;;;;;;;;;;-1.82;82.34;94300.31;4981191;28;20019;-74
2023/11/11 07:52:54;;;;;;;;;;;;;;;-1.73;82.68;94291.69;4975097;28;20582;-75
2023/11/11 07:55:21;;;;;;;;;;;;;;;-1.75;81.06;94291.00;4963462;28;20396;-75
2023/11/11 07:57:47;;;;;;;;;;;;;;;-1.82;81.53;94296.88;4970231;28;20417;-74
2023/11/11 08:00:16;;;;;;;;;;;;;;;-1.76;81.66;94312.81;4969797;28;20010;-75
2023/11/11 08:02:41;;;;;;;;;;;;;;;-1.49;81.24;94300.13;4954103;28;19983;-75
2023/11/11 08:05:08;;;;;;;;;;;;;;;-1.53;80.06;94311.78;4974003;28;20594;-75
2023/11/11 08:07:33;;;;;;;;;;;;;;;-1.17;79.63;94306.03;4977056;28;19926;-75
2023/11/11 08:09:58;;;;;;;;;;;;;;;-1.89;80.99;94307.88;4968927;28;20651;-76
2023/11/11 08:12:23;;;;;;;;;;;;;;;-1.88;81.26;94308.66;4974162;28;19944;-76
2023/11/11 08:14:49;;;;;;;;;;;;;;;-1.97;81.97;94320.72;4981342;28;19998;-75
2023/11/11 08:17:14;;;;;;;;;;;;;;;-1.42;80.64;94305.63;4979153;28;20415;-75
2023/11/11 08:19:39;;;;;;;;;;;;;;;-1.34;79.27;94300.53;4973871;28;19950;-76
2023/11/11 08:22:05;;;;;;;;;;;;;;;-0.99;78.26;94314.00;4977017;28;19992;-75
2023/11/11 08:24:30;;;;;;;;;;;;;;;-0.96;77.66;94306.75;4974679;28;20618;-75
2023/11/11 08:26:56;;;;;;;;;;;;;;;-0.76;77.03;94298.91;4972959;28;19953;-75
2023/11/11 08:29:25;;;;;;;;;;;;;;;-1.01;78.00;94323.78;4975065;28;19918;-75
2023/11/11 08:31:50;;;;;;;;;;;;;;;-1.61;79.47;94322.91;4978982;28;19962;-75
2023/11/11 08:34:15;;;;;;;;;;;;;;;-1.66;79.23;94325.91;4970364;28;19960;-76
2023/11/11 08:36:41;;;;;;;;;;;;;;;-1.46;79.26;94321.53;4967984;28;20430;-75
2023/11/11 08:39:07;;;;;;;;;;;;;;;-1.62;79.94;94331.69;4974782;28;20048;-75
2023/11/11 08:41:32;;;;;;;;;;;;;;;-1.74;80.57;94326.56;4974109;28;20088;-75
2023/11/11 08:43:58;;;;;;;;;;;;;;;-1.67;79.65;94332.09;4967799;28;19976;-75
2023/11/11 08:46:23;;;;;;;;;;;;;;;-1.73;80.27;94328.22;4951755;28;19961;-75
2023/11/11 08:48:48;;;;;;;;;;;;;;;-1.75;79.83;94337.97;4976053;28;20521;-76
2023/11/11 08:51:14;;;;;;;;;;;;;;;-2.04;80.03;94338.69;4969828;28;19972;-74
2023/11/11 08:53:39;;;;;;;;;;;;;;;-2.14;80.88;94345.66;4974512;28;19948;-76
2023/11/11 08:56:04;;;;;;;;;;;;;;;-1.68;78.42;94347.88;4976020;28;20696;-77
2023/11/11 08:58:30;;;;;;;;;;;;;;;-1.87;79.98;94345.06;4974372;28;19960;-75
2023/11/11 09:00:56;;;;;;;;;;;;;;;-1.47;78.61;94327.75;4970532;28;20026;-75
2023/11/11 09:03:21;;;;;;;;;;;;;;;-1.80;78.28;94334.91;4973430;28;19959;-75
2023/11/11 09:05:46;;;;;;;;;;;;;;;-1.94;79.87;94343.13;4968931;28;19958;-75
2023/11/11 09:08:12;;;;;;;;;;;;;;;-1.53;78.18;94333.47;4968401;28;19926;-75
2023/11/11 09:10:37;;;;;;;;;;;;;;;-1.50;77.10;94332.38;4971360;28;19963;-74
2023/11/11 09:13:03;;;;;;;;;;;;;;;-1.66;77.65;94333.72;4974806;28;20419;-75
2023/11/11 09:15:29;;;;;;;;;;;;;;;-1.73;78.08;94338.66;4975035;28;19963;-75
2023/11/11 09:17:54;;;;;;;;;;;;;;;-1.38;77.66;94343.56;4958178;28;19950;-75
2023/11/11 09:20:21;;;;;;;;;;;;;;;-1.23;75.64;94339.59;4975110;28;20006;-75
2023/11/11 09:22:46;;;;;;;;;;;;;;;-1.52;76.38;94349.97;4975577;28;19955;-74
2023/11/11 09:25:14;;;;;;;;;;;;;;;-1.57;77.16;94355.59;4974673;28;19947;-75
2023/11/11 09:27:40;;;;;;;;;;;;;;;-1.41;76.80;94362.09;4972769;28;19963;-75
2023/11/11 09:30:06;;;;;;;;;;;;;;;-1.17;75.04;94343.44;4978568;28;19939;-75
2023/11/11 09:32:31;;;;;;;;;;;;;;;-1.00;74.48;94357.63;4975257;28;20130;-75
2023/11/11 09:34:57;;;;;;;;;;;;;;;-1.22;74.95;94343.84;4969672;28;20596;-76
2023/11/11 09:37:22;;;;;;;;;;;;;;;-0.87;74.06;94351.31;4972274;28;20036;-75
2023/11/11 09:39:47;;;;;;;;;;;;;;;-1.17;74.34;94363.50;4976512;28;19965;-75
2023/11/11 09:42:13;;;;;;;;;;;;;;;-1.13;73.95;94357.03;4969452;28;19962;-74
2023/11/11 09:44:39;;;;;;;;;;;;;;;-1.12;74.01;94363.94;4959288;28;20717;-75
2023/11/11 09:47:06;;;;;;;;;;;;;;;-1.04;73.41;94369.31;4972377;28;19961;-75
2023/11/11 09:49:32;;;;;;;;;;;;;;;-1.30;74.21;94363.75;4972983;28;19934;-75
2023/11/11 09:51:58;;;;;;;;;;;;;;;-1.31;75.07;94360.34;4971556;28;19961;-75
2023/11/11 09:54:23;;;;;;;;;;;;;;;-1.15;74.44;94361.59;4970677;28;19959;-75
2023/11/11 09:56:49;;;;;;;;;;;;;;;-1.03;73.98;94359.66;4972871;28;19978;-75
2023/11/11 09:59:14;;;;;;;;;;;;;;;-1.10;72.88;94351.56;4971590;28;19957;-74
2023/11/11 10:01:40;;;;;;;;;;;;;;;-1.30;75.04;94356.75;4972673;28;19937;-75
2023/11/11 10:04:06;;;;;;;;;;;;;;;-1.51;73.30;94360.31;4974549;28;19951;-72
2023/11/11 10:06:32;;;;;;;;;;;;;;;-1.91;75.11;94385.44;4975139;28;19976;-73
2023/11/11 10:08:57;;;;;;;;;;;;;;;-1.87;76.46;94368.56;4983720;28;19963;-72
2023/11/11 10:11:22;;;;;;;;;;;;;;;-1.65;75.46;94358.88;4980556;28;19949;-72
2023/11/11 10:13:48;;;;;;;;;;;;;;;-1.73;74.80;94367.38;4984812;28;19941;-72
2023/11/11 10:16:14;;;;;;;;;;;;;;;-1.47;73.76;94377.34;4982802;28;19947;-72
2023/11/11 10:18:40;;;;;;;;;;;;;;;-1.34;75.43;94371.03;4981855;28;20053;-73
2023/11/11 10:21:06;;;;;;;;;;;;;;;-0.97;74.32;94367.84;4984604;28;19995;-72
2023/11/11 10:23:31;;;;;;;;;;;;;;;-0.72;72.92;94370.00;4986889;28;20001;-73
2023/11/11 10:25:58;;;;;;;;;;;;;;;-0.88;72.74;94367.97;4982428;28;20115;-73
2023/11/11 10:28:24;;;;;;;;;;;;;;;-0.78;72.41;94373.19;4983992;28;20697;-72
2023/11/11 10:30:51;;;;;;;;;;;;;;;-1.03;73.08;94370.13;4981146;28;19978;-72
2023/11/11 10:33:16;;;;;;;;;;;;;;;-0.58;72.63;94376.59;4983186;28;20042;-72
2023/11/11 10:35:42;;;;;;;;;;;;;;;-0.98;72.65;94370.53;4987784;28;20071;-72
2023/11/11 10:38:07;;;;;;;;;;;;;;;-1.12;74.37;94369.16;4982228;28;19998;-73
2023/11/11 10:40:32;;;;;;;;;;;;;;;-1.11;72.46;94378.66;4983577;28;19913;-72
2023/11/11 10:42:58;;;;;;;;;;;;;;;-1.28;73.70;94380.97;4984417;28;19955;-72
2023/11/11 10:45:24;;;;;;;;;;;;;;;-1.72;74.37;94368.22;4986234;28;19956;-72
2023/11/11 10:47:49;;;;;;;;;;;;;;;-1.52;74.70;94366.47;4983000;28;19963;-72
2023/11/11 10:50:15;;;;;;;;;;;;;;;-1.09;74.09;94376.72;4987217;28;19959;-72
2023/11/11 10:52:40;;;;;;;;;;;;;;;-1.03;72.26;94377.94;4985577;28;19947;-72
2023/11/11 10:55:09;;;;;;;;;;;;;;;-0.84;72.83;94371.97;4985109;28;19960;-73
2023/11/11 10:57:34;;;;;;;;;;;;;;;-0.65;71.75;94375.53;4986042;28;19944;-73
2023/11/11 10:59:59;;;;;;;;;;;;;;;-0.65;71.58;94380.75;4985763;28;19964;-72
2023/11/11 11:02:25;;;;;;;;;;;;;;;-0.89;71.84;94384.59;4985362;28;19957;-72
2023/11/11 11:04:53;;;;;;;;;;;;;;;-0.71;73.06;94377.72;4985569;28;20011;-72
2023/11/11 11:07:23;;;;;;;;;;;;;;;-0.87;72.50;94377.44;4985521;28;20246;-72
2023/11/11 11:10:19;;;;;;;;;;;;;;;-1.10;74.56;94395.97;4989857;28;19945;-72
2023/11/11 11:12:46;;;;;;;;;;;;;;;-1.40;75.34;94395.06;4978514;28;19961;-72
2023/11/11 11:15:13;;;;;;;;;;;;;;;-1.24;75.81;94384.97;4986410;28;20386;-72
2023/11/11 11:17:45;;;;;;;;;;;;;;;-1.68;77.09;94397.47;4985582;28;20686;-72
2023/11/11 11:20:20;;;;;;;;;;;;;;;-1.18;75.50;94386.22;4985455;28;19952;-73
2023/11/11 11:22:48;;;;;;;;;;;;;;;-1.05;74.19;94379.88;4983754;28;19951;-73
2023/11/11 11:25:32;;;;;;;;;;;;;;;-1.15;74.82;94379.88;4984448;28;19957;-73
2023/11/11 11:28:10;;;;;;;;;;;;;;;-0.80;73.84;94391.63;4984514;28;20322;-73
2023/11/11 11:30:38;;;;;;;;;;;;;;;-1.25;75.37;94380.66;4991502;28;19960;-72
2023/11/11 11:33:05;;;;;;;;;;;;;;;-1.20;75.11;94401.16;4983615;28;19932;-73
2023/11/11 11:35:30;;;;;;;;;;;;;;;-1.19;74.87;94402.00;4986503;28;20540;-72
2023/11/11 11:37:56;;;;;;;;;;;;;;;-0.85;71.50;94385.97;4987954;28;19968;-73
2023/11/11 11:40:21;;;;;;;;;;;;;;;-1.53;72.40;94403.16;4985737;28;19950;-73
2023/11/11 11:42:47;;;;;;;;;;;;;;;-1.01;71.95;94397.78;4984400;28;20559;-73
2023/11/11 11:45:12;;;;;;;;;;;;;;;-0.60;70.10;94397.66;4983220;28;20648;-73
2023/11/11 11:47:38;;;;;;;;;;;;;;;-0.57;68.95;94396.59;4988341;28;19965;-72
2023/11/11 11:50:03;;;;;;;;;;;;;;;-0.25;68.60;94387.59;4986076;28;19975;-73
2023/11/11 11:52:29;;;;;;;;;;;;;;;0.84;66.23;94387.97;4990102;28;20292;-73
2023/11/11 11:54:54;;;;;;;;;;;;;;;0.56;64.48;94393.25;4988153;28;19922;-73
2023/11/11 11:57:19;;;;;;;;;;;;;;;2.38;60.14;94368.63;4986163;28;19943;-73
2023/11/11 11:59:46;;;;;;;;;;;;;;;2.19;56.86;94378.41;4982237;28;19968;-73
2023/11/11 12:02:11;;;;;;;;;;;;;;;2.89;53.32;94394.09;4988948;28;20460;-72
2023/11/11 12:04:41;;;;;;;;;;;;;;;1.27;57.21;94386.56;4984502;28;19997;-72
2023/11/11 12:07:12;;;;;;;;;;;;;;;1.50;59.54;94382.50;4986322;28;19962;-72
2023/11/11 12:09:37;;;;;;;;;;;;;;;1.37;58.56;94397.81;4987522;28;20708;-73
2023/11/11 12:12:06;;;;;;;;;;;;;;;0.66;59.96;94390.56;4989119;28;19971;-72
2023/11/11 12:14:31;;;;;;;;;;;;;;;0.07;61.92;94422.19;4987777;28;20098;-72
2023/11/11 12:16:57;;;;;;;;;;;;;;;-0.33;66.87;94413.63;4986081;28;20419;-73
2023/11/11 12:19:24;;;;;;;;;;;;;;;-0.46;67.33;94404.28;4986992;28;20080;-73
2023/11/11 12:21:50;;;;;;;;;;;;;;;-0.68;68.23;94412.41;4982453;28;19948;-72
2023/11/11 12:24:29;;;;;;;;;;;;;;;-0.58;67.09;94398.34;4983890;28;19937;-71
2023/11/11 12:26:55;;;;;;;;;;;;;;;-0.70;67.10;94410.72;4989064;28;20353;-72
2023/11/11 12:29:21;;;;;;;;;;;;;;;-0.20;65.13;94402.88;5003927;28;19974;-72
2023/11/11 12:31:46;;;;;;;;;;;;;;;-0.04;62.94;94412.72;4983756;28;19958;-73
2023/11/11 12:34:12;;;;;;;;;;;;;;;-0.05;61.76;94408.47;4982526;28;20445;-73
2023/11/11 12:36:37;;;;;;;;;;;;;;;0.14;60.36;94401.53;4986187;28;20004;-73
2023/11/11 12:39:08;;;;;;;;;;;;;;;1.21;59.63;94399.31;4984737;28;19955;-73
2023/11/11 12:41:34;;;;;;;;;;;;;;;1.82;57.56;94401.31;4990732;28;20082;-72